Main page
METAR-TAF:

METAR-TAF

Airports :

Faro Airport

Faro, Portugal

latitude: 37-01N, longitude: 007-58W, elevation: 7 m

Current weather observation

The report was made 25 minutes ago, at 23:30 UTC
Wind 11 kt from the Northwest
Temperature 22°C
Humidity 60%
Pressure 1016 hPa
Visibility 10 km or more
no clouds below 1500 m and no cumulonimbus

METAR: LPFR 302330Z 31011KT CAVOK 22/14 Q1016

Time: 00:55 (23:55 UTC)

Forecast

The report was made 55 minutes ago, at 23:00 UTC
Forecast valid from 31 at 00 UTC to 31 at 24 UTC
Wind 13 kt from the Northwest
Visibility 10 km or more
no clouds below 1500 m and no cumulonimbus
Becoming
from 31 at 22 UTC to 31 at 24 UTC
Wind 8 kt from the North/Northwest

TAF: LPFR 302300Z 3100/3124 31013KT CAVOK BECMG 3122/3124 33008KT

Weather observations and forecasts of more than 4000 airports (METAR and TAF reports).

The available stations are represented by yellow and red dots on the map.

Hover mouse over dot to see the name of the station.

Then click to see weather observations and forecasts.

To change the map : click on the green buttons with a black cross to zoom in, on the green button with a dash to zoom out, or on the green arrows for adjacent maps.


METAR-TAF: